sensor_id;sensor_type;location;lat;lon;timestamp;temperature;humidity
10192;DHT22;17580;50.850;4.504;2023-08-01T11:12:34;22.20;34.10
10192;DHT22;17580;50.850;4.504;2023-08-01T11:15:01;22.20;34.10
10192;DHT22;17580;50.850;4.504;2023-08-01T11:17:28;22.00;36.50
10192;DHT22;17580;50.850;4.504;2023-08-01T11:20:03;22.20;34.50
10192;DHT22;17580;50.850;4.504;2023-08-01T11:22:31;22.60;36.30
10192;DHT22;17580;50.850;4.504;2023-08-01T11:24:58;23.00;35.50
10192;DHT22;17580;50.850;4.504;2023-08-01T11:27:26;23.60;32.20
10192;DHT22;17580;50.850;4.504;2023-08-01T11:29:54;23.00;31.00
10192;DHT22;17580;50.850;4.504;2023-08-01T11:32:22;22.60;30.10
10192;DHT22;17580;50.850;4.504;2023-08-01T11:34:58;22.60;31.90
10192;DHT22;17580;50.850;4.504;2023-08-01T11:37:26;22.60;33.00
10192;DHT22;17580;50.850;4.504;2023-08-01T11:39:54;23.00;31.30
10192;DHT22;17580;50.850;4.504;2023-08-01T11:42:22;22.70;29.50
10192;DHT22;17580;50.850;4.504;2023-08-01T11:44:50;22.30;30.60
10192;DHT22;17580;50.850;4.504;2023-08-01T11:47:18;23.60;31.60
10192;DHT22;17580;50.850;4.504;2023-08-01T11:49:46;23.30;29.70
10192;DHT22;17580;50.850;4.504;2023-08-01T11:52:23;23.00;29.20
10192;DHT22;17580;50.850;4.504;2023-08-01T11:54:50;22.70;27.70
10192;DHT22;17580;50.850;4.504;2023-08-01T11:57:17;23.00;28.20
10192;DHT22;17580;50.850;4.504;2023-08-01T11:59:49;22.80;29.40
10192;DHT22;17580;50.850;4.504;2023-08-01T12:02:23;23.30;28.40
10192;DHT22;17580;50.850;4.504;2023-08-01T12:04:50;24.60;31.10
10192;DHT22;17580;50.850;4.504;2023-08-01T12:07:18;24.50;27.60
10192;DHT22;17580;50.850;4.504;2023-08-01T12:09:55;23.50;25.80
10192;DHT22;17580;50.850;4.504;2023-08-01T12:12:23;23.00;26.20
10192;DHT22;17580;50.850;4.504;2023-08-01T12:14:51;22.60;26.90
10192;DHT22;17580;50.850;4.504;2023-08-01T12:17:19;22.40;27.70
10192;DHT22;17580;50.850;4.504;2023-08-01T12:19:46;22.30;29.70
10192;DHT22;17580;50.850;4.504;2023-08-01T12:22:13;22.00;30.50
10192;DHT22;17580;50.850;4.504;2023-08-01T12:24:41;22.00;30.50
10192;DHT22;17580;50.850;4.504;2023-08-01T12:27:08;22.60;29.40
10192;DHT22;17580;50.850;4.504;2023-08-01T12:29:36;22.40;31.10
10192;DHT22;17580;50.850;4.504;2023-08-01T12:32:05;22.20;32.50
10192;DHT22;17580;50.850;4.504;2023-08-01T12:34:34;21.90;32.30
10192;DHT22;17580;50.850;4.504;2023-08-01T12:37:01;22.00;31.30
10192;DHT22;17580;50.850;4.504;2023-08-01T12:39:28;22.20;32.40
10192;DHT22;17580;50.850;4.504;2023-08-01T12:41:55;22.00;31.80
10192;DHT22;17580;50.850;4.504;2023-08-01T12:44:22;21.90;31.90
10192;DHT22;17580;50.850;4.504;2023-08-01T12:46:49;21.40;32.30
10192;DHT22;17580;50.850;4.504;2023-08-01T12:49:18;21.10;32.30
10192;DHT22;17580;50.850;4.504;2023-08-01T12:51:45;21.00;34.90
10192;DHT22;17580;50.850;4.504;2023-08-01T12:54:12;20.70;33.90
10192;DHT22;17580;50.850;4.504;2023-08-01T12:56:39;20.40;33.80
10192;DHT22;17580;50.850;4.504;2023-08-01T12:59:06;20.30;35.00
10192;DHT22;17580;50.850;4.504;2023-08-01T13:01:34;20.20;36.10
10192;DHT22;17580;50.850;4.504;2023-08-01T13:04:01;20.20;35.80
10192;DHT22;17580;50.850;4.504;2023-08-01T13:06:29;20.20;37.10
10192;DHT22;17580;50.850;4.504;2023-08-01T13:08:56;20.10;37.70
10192;DHT22;17580;50.850;4.504;2023-08-01T13:11:24;20.10;37.10
10192;DHT22;17580;50.850;4.504;2023-08-01T13:13:51;20.10;36.90
10192;DHT22;17580;50.850;4.504;2023-08-01T13:16:18;20.20;36.20
10192;DHT22;17580;50.850;4.504;2023-08-01T13:18:45;20.20;36.50
10192;DHT22;17580;50.850;4.504;2023-08-01T13:21:14;20.20;35.90
10192;DHT22;17580;50.850;4.504;2023-08-01T13:23:42;20.30;36.00
10192;DHT22;17580;50.850;4.504;2023-08-01T13:26:09;20.60;34.40
10192;DHT22;17580;50.850;4.504;2023-08-01T13:28:36;21.20;34.80
10192;DHT22;17580;50.850;4.504;2023-08-01T13:31:03;21.90;33.80
10192;DHT22;17580;50.850;4.504;2023-08-01T13:33:30;22.40;33.50
10192;DHT22;17580;50.850;4.504;2023-08-01T13:35:57;22.70;31.40
10192;DHT22;17580;50.850;4.504;2023-08-01T13:38:24;22.80;31.30
10192;DHT22;17580;50.850;4.504;2023-08-01T13:40:53;22.80;29.90
10192;DHT22;17580;50.850;4.504;2023-08-01T13:43:20;22.80;31.50
10192;DHT22;17580;50.850;4.504;2023-08-01T13:45:47;23.00;29.10
10192;DHT22;17580;50.850;4.504;2023-08-01T13:48:14;23.10;30.30
10192;DHT22;17580;50.850;4.504;2023-08-01T13:50:41;23.40;29.50
10192;DHT22;17580;50.850;4.504;2023-08-01T13:53:08;22.90;26.40
10192;DHT22;17580;50.850;4.504;2023-08-01T13:55:37;22.70;27.90
10192;DHT22;17580;50.850;4.504;2023-08-01T13:58:06;23.20;26.40
10192;DHT22;17580;50.850;4.504;2023-08-01T14:00:33;22.70;26.30
10192;DHT22;17580;50.850;4.504;2023-08-01T14:03:00;23.00;27.10
10192;DHT22;17580;50.850;4.504;2023-08-01T14:05:28;23.40;26.50
10192;DHT22;17580;50.850;4.504;2023-08-01T14:07:55;23.10;25.80
10192;DHT22;17580;50.850;4.504;2023-08-01T14:10:22;22.60;25.90
10192;DHT22;17580;50.850;4.504;2023-08-01T14:12:49;22.10;26.20
10192;DHT22;17580;50.850;4.504;2023-08-01T14:15:18;21.80;27.60
10192;DHT22;17580;50.850;4.504;2023-08-01T14:17:45;21.50;27.00
10192;DHT22;17580;50.850;4.504;2023-08-01T14:20:12;21.30;26.80
10192;DHT22;17580;50.850;4.504;2023-08-01T14:22:41;21.20;27.30
10192;DHT22;17580;50.850;4.504;2023-08-01T14:25:09;21.00;27.50
10192;DHT22;17580;50.850;4.504;2023-08-01T14:27:36;20.80;27.40
10192;DHT22;17580;50.850;4.504;2023-08-01T14:30:04;20.70;27.70
10192;DHT22;17580;50.850;4.504;2023-08-01T14:32:36;20.50;26.60
10192;DHT22;17580;50.850;4.504;2023-08-01T14:35:04;20.40;27.30
10192;DHT22;17580;50.850;4.504;2023-08-01T14:37:31;20.40;26.60
10192;DHT22;17580;50.850;4.504;2023-08-01T14:39:58;20.30;27.00
10192;DHT22;17580;50.850;4.504;2023-08-01T14:42:25;20.20;28.00
10192;DHT22;17580;50.850;4.504;2023-08-01T14:44:52;20.20;28.00
10192;DHT22;17580;50.850;4.504;2023-08-01T14:47:20;20.10;28.80
10192;DHT22;17580;50.850;4.504;2023-08-01T14:49:48;20.10;29.60
10192;DHT22;17580;50.850;4.504;2023-08-01T14:52:15;20.20;31.80
10192;DHT22;17580;50.850;4.504;2023-08-01T14:54:42;20.20;33.20
10192;DHT22;17580;50.850;4.504;2023-08-01T14:57:09;20.10;33.10
10192;DHT22;17580;50.850;4.504;2023-08-01T14:59:36;20.10;34.40
10192;DHT22;17580;50.850;4.504;2023-08-01T15:02:04;20.00;33.70
10192;DHT22;17580;50.850;4.504;2023-08-01T15:04:31;20.00;35.50
10192;DHT22;17580;50.850;4.504;2023-08-01T15:07:01;20.00;35.10
10192;DHT22;17580;50.850;4.504;2023-08-01T15:09:29;20.00;36.20
10192;DHT22;17580;50.850;4.504;2023-08-01T15:11:56;19.90;35.80
10192;DHT22;17580;50.850;4.504;2023-08-01T15:14:23;19.80;35.80
10192;DHT22;17580;50.850;4.504;2023-08-01T15:16:50;19.70;40.30
10192;DHT22;17580;50.850;4.504;2023-08-01T15:19:17;19.60;40.90
10192;DHT22;17580;50.850;4.504;2023-08-01T15:21:45;19.40;42.20
10192;DHT22;17580;50.850;4.504;2023-08-01T15:24:13;19.20;43.50
10192;DHT22;17580;50.850;4.504;2023-08-01T15:26:40;19.10;41.40
10192;DHT22;17580;50.850;4.504;2023-08-01T15:29:07;19.10;42.80
10192;DHT22;17580;50.850;4.504;2023-08-01T15:31:35;19.10;44.20
10192;DHT22;17580;50.850;4.504;2023-08-01T15:34:02;19.00;44.50
10192;DHT22;17580;50.850;4.504;2023-08-01T15:36:29;19.00;44.00
10192;DHT22;17580;50.850;4.504;2023-08-01T15:38:57;19.00;44.30
10192;DHT22;17580;50.850;4.504;2023-08-01T15:41:25;18.90;44.80
10192;DHT22;17580;50.850;4.504;2023-08-01T15:43:53;18.90;44.70
10192;DHT22;17580;50.850;4.504;2023-08-01T15:46:20;18.90;45.50
10192;DHT22;17580;50.850;4.504;2023-08-01T15:48:47;18.90;47.00
10192;DHT22;17580;50.850;4.504;2023-08-01T15:51:14;18.90;45.80
10192;DHT22;17580;50.850;4.504;2023-08-01T15:53:41;18.90;46.70
10192;DHT22;17580;50.850;4.504;2023-08-01T15:56:08;18.90;47.70
10192;DHT22;17580;50.850;4.504;2023-08-01T15:58:38;19.00;46.20
10192;DHT22;17580;50.850;4.504;2023-08-01T16:01:05;19.00;48.20
10192;DHT22;17580;50.850;4.504;2023-08-01T16:03:35;19.00;49.70
10192;DHT22;17580;50.850;4.504;2023-08-01T16:06:02;18.90;53.70
10192;DHT22;17580;50.850;4.504;2023-08-01T16:08:29;18.90;54.60
10192;DHT22;17580;50.850;4.504;2023-08-01T16:10:56;18.80;57.20
10192;DHT22;17580;50.850;4.504;2023-08-01T16:13:24;18.80;55.70
10192;DHT22;17580;50.850;4.504;2023-08-01T16:15:52;18.80;56.50
10192;DHT22;17580;50.850;4.504;2023-08-01T16:18:19;18.90;58.30
10192;DHT22;17580;50.850;4.504;2023-08-01T16:20:46;19.00;58.40
10192;DHT22;17580;50.850;4.504;2023-08-01T16:23:14;18.90;58.30
10192;DHT22;17580;50.850;4.504;2023-08-01T16:25:41;18.90;56.90
10192;DHT22;17580;50.850;4.504;2023-08-01T16:28:08;19.00;57.60
10192;DHT22;17580;50.850;4.504;2023-08-01T16:30:35;19.00;57.60
10192;DHT22;17580;50.850;4.504;2023-08-01T16:33:04;19.10;56.70
10192;DHT22;17580;50.850;4.504;2023-08-01T16:35:32;19.50;57.90
10192;DHT22;17580;50.850;4.504;2023-08-01T16:37:59;19.70;56.10
10192;DHT22;17580;50.850;4.504;2023-08-01T16:40:26;19.70;55.30
10192;DHT22;17580;50.850;4.504;2023-08-01T16:42:53;19.70;54.90
10192;DHT22;17580;50.850;4.504;2023-08-01T16:45:20;19.70;55.30
10192;DHT22;17580;50.850;4.504;2023-08-01T16:47:47;19.70;54.50
10192;DHT22;17580;50.850;4.504;2023-08-01T16:50:16;19.50;53.30
10192;DHT22;17580;50.850;4.504;2023-08-01T16:52:44;19.50;54.20
10192;DHT22;17580;50.850;4.504;2023-08-01T16:55:11;19.50;53.70
10192;DHT22;17580;50.850;4.504;2023-08-01T16:57:38;19.40;52.00
10192;DHT22;17580;50.850;4.504;2023-08-01T17:00:06;19.30;52.30
10192;DHT22;17580;50.850;4.504;2023-08-01T17:02:34;19.30;53.40
10192;DHT22;17580;50.850;4.504;2023-08-01T17:05:01;19.20;52.00
10192;DHT22;17580;50.850;4.504;2023-08-01T17:07:31;19.10;52.50
10192;DHT22;17580;50.850;4.504;2023-08-01T17:10:00;19.20;52.10
10192;DHT22;17580;50.850;4.504;2023-08-01T17:12:27;19.20;52.80
10192;DHT22;17580;50.850;4.504;2023-08-01T17:14:54;19.40;51.50
10192;DHT22;17580;50.850;4.504;2023-08-01T17:17:21;19.40;50.40
10192;DHT22;17580;50.850;4.504;2023-08-01T17:19:48;19.50;49.40
10192;DHT22;17580;50.850;4.504;2023-08-01T17:22:15;19.50;49.10
10192;DHT22;17580;50.850;4.504;2023-08-01T17:24:44;19.50;47.90
10192;DHT22;17580;50.850;4.504;2023-08-01T17:27:11;19.50;48.30
10192;DHT22;17580;50.850;4.504;2023-08-01T17:29:38;19.40;47.20
10192;DHT22;17580;50.850;4.504;2023-08-01T17:32:06;19.40;47.90
10192;DHT22;17580;50.850;4.504;2023-08-01T17:34:33;19.40;47.90
10192;DHT22;17580;50.850;4.504;2023-08-01T17:37:00;19.40;49.40
10192;DHT22;17580;50.850;4.504;2023-08-01T17:39:28;19.40;49.30
10192;DHT22;17580;50.850;4.504;2023-08-01T17:41:57;19.40;49.20
10192;DHT22;17580;50.850;4.504;2023-08-01T17:44:25;19.40;49.60
10192;DHT22;17580;50.850;4.504;2023-08-01T17:46:52;19.40;48.60
10192;DHT22;17580;50.850;4.504;2023-08-01T17:49:19;19.40;47.60
10192;DHT22;17580;50.850;4.504;2023-08-01T17:51:46;19.40;47.00
10192;DHT22;17580;50.850;4.504;2023-08-01T17:54:13;19.40;46.60
10192;DHT22;17580;50.850;4.504;2023-08-01T17:56:41;19.40;46.70
10192;DHT22;17580;50.850;4.504;2023-08-01T17:59:09;19.30;46.50
10192;DHT22;17580;50.850;4.504;2023-08-01T18:01:38;19.30;45.60
10192;DHT22;17580;50.850;4.504;2023-08-01T18:04:05;19.30;46.00
10192;DHT22;17580;50.850;4.504;2023-08-01T18:06:32;19.20;46.80
10192;DHT22;17580;50.850;4.504;2023-08-01T18:09:01;19.20;45.50
10192;DHT22;17580;50.850;4.504;2023-08-01T18:11:28;19.10;46.00
10192;DHT22;17580;50.850;4.504;2023-08-01T18:13:55;19.10;46.70
10192;DHT22;17580;50.850;4.504;2023-08-01T18:16:26;19.10;45.60
10192;DHT22;17580;50.850;4.504;2023-08-01T18:18:53;19.10;46.20
10192;DHT22;17580;50.850;4.504;2023-08-01T18:21:20;19.20;44.80
10192;DHT22;17580;50.850;4.504;2023-08-01T18:23:47;19.20;44.40
10192;DHT22;17580;50.850;4.504;2023-08-01T18:26:18;19.10;45.00
10192;DHT22;17580;50.850;4.504;2023-08-01T18:28:46;19.10;43.80
10192;DHT22;17580;50.850;4.504;2023-08-01T18:31:13;19.10;44.60
10192;DHT22;17580;50.850;4.504;2023-08-01T18:33:42;19.10;44.90
10192;DHT22;17580;50.850;4.504;2023-08-01T18:36:13;19.10;44.10
10192;DHT22;17580;50.850;4.504;2023-08-01T18:38:41;19.10;43.30
10192;DHT22;17580;50.850;4.504;2023-08-01T18:41:08;19.10;43.80
10192;DHT22;17580;50.850;4.504;2023-08-01T18:43:36;19.00;43.40
10192;DHT22;17580;50.850;4.504;2023-08-01T18:46:04;19.00;43.40
10192;DHT22;17580;50.850;4.504;2023-08-01T18:48:31;19.00;43.50
10192;DHT22;17580;50.850;4.504;2023-08-01T18:51:00;19.00;43.80
10192;DHT22;17580;50.850;4.504;2023-08-01T18:53:35;19.00;45.20
10192;DHT22;17580;50.850;4.504;2023-08-01T18:56:06;19.10;44.80
10192;DHT22;17580;50.850;4.504;2023-08-01T18:58:34;19.00;44.10
10192;DHT22;17580;50.850;4.504;2023-08-01T19:01:10;19.00;44.30
10192;DHT22;17580;50.850;4.504;2023-08-01T19:03:38;19.00;44.50
10192;DHT22;17580;50.850;4.504;2023-08-01T19:06:06;19.00;45.60
10192;DHT22;17580;50.850;4.504;2023-08-01T19:08:33;18.90;44.00
10192;DHT22;17580;50.850;4.504;2023-08-01T19:11:00;18.90;44.10
10192;DHT22;17580;50.850;4.504;2023-08-01T19:13:27;18.80;44.20
10192;DHT22;17580;50.850;4.504;2023-08-01T19:15:54;18.70;44.70
10192;DHT22;17580;50.850;4.504;2023-08-01T19:18:21;18.70;44.40
10192;DHT22;17580;50.850;4.504;2023-08-01T19:20:48;18.80;44.30
10192;DHT22;17580;50.850;4.504;2023-08-01T19:23:17;18.80;45.10
10192;DHT22;17580;50.850;4.504;2023-08-01T19:25:45;18.80;45.10
10192;DHT22;17580;50.850;4.504;2023-08-01T19:28:12;18.80;45.60
10192;DHT22;17580;50.850;4.504;2023-08-01T19:30:39;18.70;45.40
10192;DHT22;17580;50.850;4.504;2023-08-01T19:33:06;18.80;45.60
10192;DHT22;17580;50.850;4.504;2023-08-01T19:35:39;18.70;46.00
10192;DHT22;17580;50.850;4.504;2023-08-01T19:38:06;18.70;46.50
10192;DHT22;17580;50.850;4.504;2023-08-01T19:40:37;18.70;47.20
10192;DHT22;17580;50.850;4.504;2023-08-01T19:43:05;18.70;46.80
10192;DHT22;17580;50.850;4.504;2023-08-01T19:45:32;18.60;46.50
10192;DHT22;17580;50.850;4.504;2023-08-01T19:47:59;18.60;46.50
10192;DHT22;17580;50.850;4.504;2023-08-01T19:50:26;18.60;47.60
10192;DHT22;17580;50.850;4.504;2023-08-01T19:52:54;18.50;47.70
10192;DHT22;17580;50.850;4.504;2023-08-01T19:55:21;18.50;47.70
10192;DHT22;17580;50.850;4.504;2023-08-01T19:57:49;18.50;47.90
10192;DHT22;17580;50.850;4.504;2023-08-01T20:00:17;18.50;48.10
10192;DHT22;17580;50.850;4.504;2023-08-01T20:02:45;18.40;48.40
10192;DHT22;17580;50.850;4.504;2023-08-01T20:05:12;18.40;48.40
10192;DHT22;17580;50.850;4.504;2023-08-01T20:07:39;18.40;49.20
10192;DHT22;17580;50.850;4.504;2023-08-01T20:10:07;18.40;49.00
10192;DHT22;17580;50.850;4.504;2023-08-01T20:12:35;18.30;49.30
10192;DHT22;17580;50.850;4.504;2023-08-01T20:15:04;18.40;49.40
10192;DHT22;17580;50.850;4.504;2023-08-01T20:17:32;18.40;50.60
10192;DHT22;17580;50.850;4.504;2023-08-01T20:19:59;18.20;50.00
10192;DHT22;17580;50.850;4.504;2023-08-01T20:22:26;18.20;49.90
10192;DHT22;17580;50.850;4.504;2023-08-01T20:24:54;18.20;50.60
10192;DHT22;17580;50.850;4.504;2023-08-01T20:27:21;18.10;50.60
10192;DHT22;17580;50.850;4.504;2023-08-01T20:29:49;18.10;51.20
10192;DHT22;17580;50.850;4.504;2023-08-01T20:32:18;18.00;51.80
10192;DHT22;17580;50.850;4.504;2023-08-01T20:34:45;17.90;51.50
10192;DHT22;17580;50.850;4.504;2023-08-01T20:37:12;17.90;52.30
10192;DHT22;17580;50.850;4.504;2023-08-01T20:39:39;17.80;52.20
10192;DHT22;17580;50.850;4.504;2023-08-01T20:42:06;17.70;52.50
10192;DHT22;17580;50.850;4.504;2023-08-01T20:44:33;17.70;52.60
10192;DHT22;17580;50.850;4.504;2023-08-01T20:47:01;17.60;52.90
10192;DHT22;17580;50.850;4.504;2023-08-01T20:49:30;17.60;53.00
10192;DHT22;17580;50.850;4.504;2023-08-01T20:51:57;17.50;53.80
10192;DHT22;17580;50.850;4.504;2023-08-01T20:54:26;17.40;53.80
10192;DHT22;17580;50.850;4.504;2023-08-01T20:56:53;17.40;54.20
10192;DHT22;17580;50.850;4.504;2023-08-01T20:59:20;17.40;55.00
10192;DHT22;17580;50.850;4.504;2023-08-01T21:01:47;17.30;55.60
10192;DHT22;17580;50.850;4.504;2023-08-01T21:04:14;17.30;56.30
10192;DHT22;17580;50.850;4.504;2023-08-01T21:06:42;17.20;56.60
10192;DHT22;17580;50.850;4.504;2023-08-01T21:09:09;17.10;57.10
10192;DHT22;17580;50.850;4.504;2023-08-01T21:11:36;17.10;57.50
10192;DHT22;17580;50.850;4.504;2023-08-01T21:14:03;17.10;57.90
10192;DHT22;17580;50.850;4.504;2023-08-01T21:16:31;17.00;58.80
10192;DHT22;17580;50.850;4.504;2023-08-01T21:18:58;17.00;58.80
10192;DHT22;17580;50.850;4.504;2023-08-01T21:21:25;17.00;59.30
10192;DHT22;17580;50.850;4.504;2023-08-01T21:23:53;17.00;59.70
10192;DHT22;17580;50.850;4.504;2023-08-01T21:26:20;17.00;60.00
10192;DHT22;17580;50.850;4.504;2023-08-01T21:28:47;17.00;60.40
10192;DHT22;17580;50.850;4.504;2023-08-01T21:31:14;17.00;60.70
10192;DHT22;17580;50.850;4.504;2023-08-01T21:33:41;16.90;61.20
10192;DHT22;17580;50.850;4.504;2023-08-01T21:36:08;16.90;61.70
10192;DHT22;17580;50.850;4.504;2023-08-01T21:38:37;16.90;62.00
10192;DHT22;17580;50.850;4.504;2023-08-01T21:41:06;16.90;61.90
10192;DHT22;17580;50.850;4.504;2023-08-01T21:43:33;16.90;62.90
10192;DHT22;17580;50.850;4.504;2023-08-01T21:46:01;16.90;62.90
10192;DHT22;17580;50.850;4.504;2023-08-01T21:48:28;16.90;63.10
10192;DHT22;17580;50.850;4.504;2023-08-01T21:50:55;16.90;63.90
10192;DHT22;17580;50.850;4.504;2023-08-01T21:53:22;16.90;64.20
10192;DHT22;17580;50.850;4.504;2023-08-01T21:55:49;17.00;63.90
10192;DHT22;17580;50.850;4.504;2023-08-01T21:58:18;17.00;64.10
10192;DHT22;17580;50.850;4.504;2023-08-01T22:00:45;17.00;64.30
10192;DHT22;17580;50.850;4.504;2023-08-01T22:03:12;16.90;65.60
10192;DHT22;17580;50.850;4.504;2023-08-01T22:05:40;16.90;65.70
10192;DHT22;17580;50.850;4.504;2023-08-01T22:08:07;16.90;66.30
10192;DHT22;17580;50.850;4.504;2023-08-01T22:10:35;16.80;66.60
10192;DHT22;17580;50.850;4.504;2023-08-01T22:13:02;16.80;67.10
10192;DHT22;17580;50.850;4.504;2023-08-01T22:15:31;16.80;67.80
10192;DHT22;17580;50.850;4.504;2023-08-01T22:17:58;16.80;67.60
10192;DHT22;17580;50.850;4.504;2023-08-01T22:20:25;16.70;69.00
10192;DHT22;17580;50.850;4.504;2023-08-01T22:22:52;16.70;69.40
10192;DHT22;17580;50.850;4.504;2023-08-01T22:25:19;16.60;70.10
10192;DHT22;17580;50.850;4.504;2023-08-01T22:27:46;16.60;70.70
10192;DHT22;17580;50.850;4.504;2023-08-01T22:30:14;16.60;71.50
10192;DHT22;17580;50.850;4.504;2023-08-01T22:32:43;16.50;71.80
10192;DHT22;17580;50.850;4.504;2023-08-01T22:35:10;16.50;72.10
10192;DHT22;17580;50.850;4.504;2023-08-01T22:37:37;16.50;72.60
10192;DHT22;17580;50.850;4.504;2023-08-01T22:40:05;16.50;73.00
10192;DHT22;17580;50.850;4.504;2023-08-01T22:42:33;16.50;73.20
10192;DHT22;17580;50.850;4.504;2023-08-01T22:45:00;16.50;73.90
10192;DHT22;17580;50.850;4.504;2023-08-01T22:47:28;16.50;74.20
10192;DHT22;17580;50.850;4.504;2023-08-01T22:49:58;16.50;74.90
10192;DHT22;17580;50.850;4.504;2023-08-01T22:52:25;16.50;74.60
10192;DHT22;17580;50.850;4.504;2023-08-01T22:54:52;16.60;75.30
10192;DHT22;17580;50.850;4.504;2023-08-01T22:57:19;16.50;74.80
10192;DHT22;17580;50.850;4.504;2023-08-01T22:59:46;16.50;75.50
10192;DHT22;17580;50.850;4.504;2023-08-01T23:02:13;16.50;75.70
10192;DHT22;17580;50.850;4.504;2023-08-01T23:04:40;16.50;75.60
10192;DHT22;17580;50.850;4.504;2023-08-01T23:07:08;16.50;76.30
10192;DHT22;17580;50.850;4.504;2023-08-01T23:09:35;16.60;76.10
10192;DHT22;17580;50.850;4.504;2023-08-01T23:12:03;16.60;76.40
10192;DHT22;17580;50.850;4.504;2023-08-01T23:14:30;16.70;76.60
10192;DHT22;17580;50.850;4.504;2023-08-01T23:16:57;16.70;76.70
10192;DHT22;17580;50.850;4.504;2023-08-01T23:19:24;16.70;76.90
10192;DHT22;17580;50.850;4.504;2023-08-01T23:21:51;16.80;76.60
10192;DHT22;17580;50.850;4.504;2023-08-01T23:24:19;16.80;76.70
10192;DHT22;17580;50.850;4.504;2023-08-01T23:26:46;16.80;76.30
10192;DHT22;17580;50.850;4.504;2023-08-01T23:29:13;16.80;76.90
10192;DHT22;17580;50.850;4.504;2023-08-01T23:31:40;16.80;76.40
10192;DHT22;17580;50.850;4.504;2023-08-01T23:34:07;16.80;76.40
10192;DHT22;17580;50.850;4.504;2023-08-01T23:36:34;16.90;76.70
10192;DHT22;17580;50.850;4.504;2023-08-01T23:39:00;16.90;76.60
10192;DHT22;17580;50.850;4.504;2023-08-01T23:41:29;16.90;76.50
10192;DHT22;17580;50.850;4.504;2023-08-01T23:43:56;16.90;76.40
10192;DHT22;17580;50.850;4.504;2023-08-01T23:46:23;16.90;75.70
10192;DHT22;17580;50.850;4.504;2023-08-01T23:48:51;16.90;76.50
10192;DHT22;17580;50.850;4.504;2023-08-01T23:51:18;16.90;76.50
10192;DHT22;17580;50.850;4.504;2023-08-01T23:53:46;16.90;77.00
10192;DHT22;17580;50.850;4.504;2023-08-01T23:56:13;16.90;76.60
10192;DHT22;17580;50.850;4.504;2023-08-01T23:58:42;16.90;76.60
